createdAt,value
2019-03-06T00:02:51.999Z,62.30
2019-03-06T00:05:55.726Z,62.10
2019-03-06T00:08:59.510Z,61.60
2019-03-06T00:12:03.816Z,61.30
2019-03-06T00:15:08.473Z,61.20
2019-03-06T00:18:12.234Z,60.70
2019-03-06T00:21:15.935Z,60.30
2019-03-06T00:24:19.777Z,60.50
2019-03-06T00:27:23.490Z,60.00
2019-03-06T00:30:27.139Z,60.00
2019-03-06T00:33:30.847Z,60.20
2019-03-06T00:36:35.083Z,60.10
2019-03-06T00:39:45.565Z,60.10
2019-03-06T00:42:49.583Z,60.20
2019-03-06T00:45:53.689Z,59.80
2019-03-06T00:48:57.566Z,60.40
2019-03-06T00:52:01.257Z,60.00
2019-03-06T00:55:05.560Z,59.20
2019-03-06T00:58:10.238Z,58.70
2019-03-06T01:01:14.238Z,58.50
2019-03-06T01:04:18.138Z,59.10
2019-03-06T01:07:21.829Z,59.30
2019-03-06T01:10:25.801Z,59.00
2019-03-06T01:13:29.829Z,58.50
2019-03-06T01:16:33.558Z,58.10
2019-03-06T01:19:37.277Z,58.70
2019-03-06T01:22:40.979Z,58.30
2019-03-06T01:25:44.721Z,58.00
2019-03-06T01:28:48.394Z,58.20
2019-03-06T01:31:52.092Z,58.10
2019-03-06T01:35:20.959Z,57.90
2019-03-06T01:38:36.689Z,57.90
2019-03-06T01:41:47.523Z,57.90
2019-03-06T01:45:00.358Z,58.00
2019-03-06T01:48:04.216Z,57.70
2019-03-06T01:51:08.278Z,57.30
2019-03-06T01:54:12.034Z,57.40
2019-03-06T01:57:15.814Z,57.40
2019-03-06T02:00:20.071Z,58.10
2019-03-06T02:03:23.903Z,58.00
2019-03-06T02:06:27.730Z,57.10
2019-03-06T02:09:32.027Z,57.20
2019-03-06T02:12:35.777Z,57.60
2019-03-06T02:15:39.727Z,57.40
2019-03-06T02:18:43.454Z,57.10
2019-03-06T02:21:47.166Z,57.90
2019-03-06T02:24:50.920Z,57.80
2019-03-06T02:27:54.674Z,58.10
2019-03-06T02:30:58.347Z,57.90
2019-03-06T02:34:02.155Z,58.20
2019-03-06T02:37:05.882Z,58.50
2019-03-06T02:40:09.710Z,57.90
2019-03-06T02:43:13.444Z,58.30
2019-03-06T02:46:17.191Z,59.30
2019-03-06T02:49:20.867Z,59.10
2019-03-06T02:52:24.639Z,59.40
2019-03-06T02:55:29.134Z,59.30
2019-03-06T02:58:42.174Z,60.00
2019-03-06T03:02:03.855Z,59.90
2019-03-06T03:05:32.335Z,59.80
2019-03-06T03:08:36.007Z,59.60
2019-03-06T03:11:39.754Z,59.80
2019-03-06T03:14:43.713Z,59.70
2019-03-06T03:17:47.478Z,59.10
2019-03-06T03:20:51.298Z,60.00
2019-03-06T03:23:55.117Z,60.10
2019-03-06T03:26:59.128Z,60.80
2019-03-06T03:30:02.988Z,60.80
2019-03-06T03:33:06.915Z,60.80
2019-03-06T03:36:10.607Z,60.90
2019-03-06T03:39:14.279Z,60.70
2019-03-06T03:42:18.751Z,60.70
2019-03-06T03:45:22.635Z,60.90
2019-03-06T03:48:26.372Z,60.90
2019-03-06T03:51:30.066Z,61.60
2019-03-06T03:54:33.736Z,61.50
2019-03-06T03:57:37.502Z,60.80
2019-03-06T04:00:41.272Z,60.60
2019-03-06T04:03:45.187Z,61.20
2019-03-06T04:06:49.085Z,61.80
2019-03-06T04:09:53.072Z,61.80
2019-03-06T04:12:56.755Z,62.30
2019-03-06T04:16:00.739Z,62.50
2019-03-06T04:19:04.426Z,62.70
2019-03-06T04:22:08.070Z,62.70
2019-03-06T04:25:11.927Z,62.90
2019-03-06T04:28:15.632Z,63.50
2019-03-06T04:31:19.451Z,63.40
2019-03-06T04:34:23.181Z,63.60
2019-03-06T04:37:27.076Z,63.80
2019-03-06T04:40:30.986Z,63.80
2019-03-06T04:43:34.698Z,63.90
2019-03-06T04:46:38.344Z,64.10
2019-03-06T04:49:42.042Z,65.10
2019-03-06T04:52:45.701Z,64.20
2019-03-06T04:55:49.646Z,64.10
2019-03-06T04:58:53.754Z,64.10
2019-03-06T05:01:57.501Z,64.40
2019-03-06T05:05:01.426Z,64.80
2019-03-06T05:08:05.754Z,65.30
2019-03-06T05:11:09.570Z,65.60
2019-03-06T05:14:13.237Z,65.90
2019-03-06T05:17:35.919Z,65.80
2019-03-06T05:20:39.690Z,66.10
2019-03-06T05:23:43.590Z,65.80
2019-03-06T05:26:47.299Z,66.60
2019-03-06T05:29:51.274Z,67.30
2019-03-06T05:32:55.459Z,67.10
2019-03-06T05:36:40.956Z,67.30
2019-03-06T05:39:44.736Z,66.80
2019-03-06T05:42:48.386Z,67.50
2019-03-06T05:45:52.099Z,67.60
2019-03-06T05:48:55.769Z,67.80
2019-03-06T05:51:59.770Z,67.70
2019-03-06T05:55:03.582Z,67.80
2019-03-06T05:58:07.304Z,68.10
2019-03-06T06:01:10.993Z,68.70
2019-03-06T06:04:14.683Z,69.10
2019-03-06T06:07:18.375Z,69.20
2019-03-06T06:10:22.130Z,69.50
2019-03-06T06:13:26.085Z,69.80
2019-03-06T06:16:29.862Z,70.50
2019-03-06T06:19:33.518Z,70.00
2019-03-06T06:22:51.283Z,70.10
2019-03-06T06:25:55.044Z,69.30
2019-03-06T06:28:58.835Z,69.40
2019-03-06T06:32:02.560Z,69.00
2019-03-06T06:35:07.570Z,69.20
2019-03-06T06:38:11.296Z,69.40
2019-03-06T06:41:15.078Z,69.00
2019-03-06T06:44:18.790Z,69.20
2019-03-06T06:47:22.449Z,69.40
2019-03-06T06:50:26.393Z,68.60
2019-03-06T06:53:42.366Z,68.70
2019-03-06T06:57:14.294Z,68.50
2019-03-06T07:01:15.686Z,66.40
2019-03-06T07:04:58.619Z,66.20
2019-03-06T07:08:28.442Z,66.60
2019-03-06T07:11:42.414Z,65.00
2019-03-06T07:15:01.601Z,63.70
2019-03-06T07:18:30.665Z,62.90
2019-03-06T07:21:41.320Z,64.20
2019-03-06T07:25:08.192Z,63.20
2019-03-06T07:28:32.375Z,63.10
2019-03-06T07:31:44.381Z,63.00
2019-03-06T07:35:41.878Z,63.50
2019-03-06T07:38:45.651Z,62.90
2019-03-06T07:41:57.131Z,62.30
2019-03-06T07:45:59.763Z,62.20
2019-03-06T07:49:19.604Z,62.10
2019-03-06T07:52:41.182Z,62.10
2019-03-06T07:55:57.402Z,60.60
2019-03-06T07:59:01.360Z,60.10
2019-03-06T08:02:08.729Z,59.70
2019-03-06T08:05:12.435Z,60.10
2019-03-06T08:08:16.246Z,60.50
2019-03-06T08:11:27.346Z,60.60
2019-03-06T08:14:44.542Z,60.00
2019-03-06T08:18:25.239Z,60.40
2019-03-06T08:21:35.168Z,59.70
2019-03-06T08:24:47.291Z,58.90
2019-03-06T08:27:51.019Z,56.80
2019-03-06T08:31:04.866Z,57.60
2019-03-06T08:34:08.887Z,57.50
2019-03-06T08:37:12.653Z,56.80
2019-03-06T08:40:16.414Z,56.40
2019-03-06T08:43:20.257Z,54.30
2019-03-06T08:46:41.467Z,54.10
2019-03-06T08:49:55.466Z,53.00
2019-03-06T08:53:21.986Z,51.90
2019-03-06T08:56:42.153Z,51.00
2019-03-06T08:59:55.783Z,49.50
2019-03-06T09:03:16.947Z,48.10
2019-03-06T09:06:35.069Z,48.90
2019-03-06T09:09:49.655Z,48.90
2019-03-06T09:13:01.719Z,48.30
2019-03-06T09:16:34.457Z,48.90
2019-03-06T09:20:04.814Z,48.30
2019-03-06T09:23:23.425Z,48.50
2019-03-06T09:26:43.669Z,47.70
2019-03-06T09:30:15.983Z,46.90
2019-03-06T09:33:35.493Z,46.20
2019-03-06T09:36:56.722Z,46.00
2019-03-06T09:40:18.150Z,44.80
2019-03-06T09:43:29.933Z,45.10
2019-03-06T09:46:43.746Z,45.30
2019-03-06T09:50:00.437Z,44.80
2019-03-06T09:53:23.605Z,43.90
2019-03-06T09:56:38.248Z,43.60
2019-03-06T09:59:58.040Z,43.10
2019-03-06T10:03:12.530Z,42.50
2019-03-06T10:06:33.864Z,42.60
2019-03-06T10:09:42.299Z,41.30
2019-03-06T10:12:54.405Z,41.30
2019-03-06T10:16:15.208Z,42.10
2019-03-06T10:19:23.442Z,41.50
2019-03-06T10:22:27.197Z,39.30
2019-03-06T10:25:31.330Z,37.50
2019-03-06T10:28:36.707Z,38.20
2019-03-06T10:31:41.546Z,38.50
2019-03-06T10:34:45.215Z,35.80
2019-03-06T10:37:49.194Z,36.50
2019-03-06T10:40:52.959Z,35.60
2019-03-06T10:43:56.737Z,34.20
2019-03-06T10:47:00.714Z,34.40
2019-03-06T10:50:05.327Z,35.60
2019-03-06T10:53:09.350Z,34.80
2019-03-06T10:56:13.486Z,34.80
2019-03-06T10:59:17.309Z,35.00
2019-03-06T11:02:21.206Z,33.30
2019-03-06T11:05:27.565Z,34.10
2019-03-06T11:08:31.434Z,33.60
2019-03-06T11:11:35.217Z,33.50
2019-03-06T11:14:39.118Z,33.50
2019-03-06T11:17:42.839Z,31.80
2019-03-06T11:20:47.211Z,29.20
2019-03-06T11:23:51.122Z,29.60
2019-03-06T11:26:55.042Z,29.60
2019-03-06T11:29:58.816Z,28.90
2019-03-06T11:33:03.486Z,29.50
2019-03-06T11:36:07.450Z,29.00
2019-03-06T11:39:12.362Z,28.80
2019-03-06T11:42:16.198Z,28.50
2019-03-06T11:45:20.170Z,29.00
2019-03-06T11:48:24.165Z,28.80
2019-03-06T11:51:27.923Z,28.80
2019-03-06T11:54:32.114Z,26.60
2019-03-06T11:57:36.182Z,26.90
2019-03-06T12:00:43.918Z,27.30
2019-03-06T12:03:48.185Z,28.20
2019-03-06T12:06:52.050Z,26.60
2019-03-06T12:09:55.793Z,26.80
2019-03-06T12:12:59.494Z,27.10
2019-03-06T12:16:04.162Z,27.30
2019-03-06T12:19:07.987Z,27.20
2019-03-06T12:22:11.853Z,26.30
2019-03-06T12:25:15.968Z,25.60
2019-03-06T12:28:19.930Z,26.00
2019-03-06T12:31:23.612Z,25.90
2019-03-06T12:34:27.390Z,26.40
2019-03-06T12:37:31.194Z,26.80
2019-03-06T12:40:35.163Z,26.80
2019-03-06T12:43:38.877Z,26.80
2019-03-06T12:46:43.465Z,26.70
2019-03-06T12:49:47.321Z,27.00
2019-03-06T12:52:51.007Z,27.00
2019-03-06T12:55:54.749Z,26.50
2019-03-06T12:58:58.855Z,27.20
2019-03-06T13:02:02.720Z,27.00
2019-03-06T13:05:06.621Z,27.20
2019-03-06T13:08:19.507Z,26.70
2019-03-06T13:11:15.915Z,26.70
2019-03-06T13:14:19.858Z,27.30
2019-03-06T13:17:23.882Z,27.20
2019-03-06T13:20:27.627Z,27.30
2019-03-06T13:23:31.773Z,27.50
2019-03-06T13:26:35.479Z,27.80
2019-03-06T13:29:39.242Z,26.90
2019-03-06T13:32:58.804Z,27.60
2019-03-06T13:36:02.822Z,26.80
2019-03-06T13:39:08.162Z,26.70
2019-03-06T13:42:12.076Z,27.00
2019-03-06T13:45:16.446Z,26.80
2019-03-06T13:48:20.142Z,26.80
2019-03-06T13:51:24.539Z,26.80
2019-03-06T13:54:28.536Z,26.30
2019-03-06T13:57:33.155Z,26.40
2019-03-06T14:00:36.877Z,27.00
2019-03-06T14:03:40.575Z,27.00
2019-03-06T14:06:44.462Z,27.10
2019-03-06T14:09:48.221Z,27.60
2019-03-06T14:12:51.958Z,27.60
2019-03-06T14:15:55.746Z,27.30
2019-03-06T14:18:59.526Z,27.60
2019-03-06T14:22:03.743Z,28.10
2019-03-06T14:25:07.859Z,28.80
2019-03-06T14:28:11.666Z,29.00
2019-03-06T14:31:16.237Z,29.20
2019-03-06T14:34:20.037Z,29.10
2019-03-06T14:37:24.199Z,29.10
2019-03-06T14:40:29.531Z,29.20
2019-03-06T14:43:33.565Z,29.40
2019-03-06T14:46:37.338Z,29.70
2019-03-06T14:49:41.091Z,29.50
2019-03-06T14:52:44.910Z,29.80
2019-03-06T14:55:48.696Z,30.20
2019-03-06T14:58:52.395Z,30.20
2019-03-06T15:01:56.225Z,30.00
2019-03-06T15:05:00.291Z,30.60
2019-03-06T15:08:06.062Z,31.20
2019-03-06T15:11:09.879Z,30.90
2019-03-06T15:14:13.974Z,31.10
2019-03-06T15:17:17.754Z,31.00
2019-03-06T15:20:21.551Z,31.20
2019-03-06T15:23:25.328Z,31.60
2019-03-06T15:26:29.030Z,31.80
2019-03-06T15:29:32.776Z,32.40
2019-03-06T15:32:36.559Z,32.30
2019-03-06T15:35:40.241Z,32.40
2019-03-06T15:38:44.097Z,32.50
2019-03-06T15:41:48.079Z,32.30
2019-03-06T15:44:51.958Z,32.40
2019-03-06T15:47:55.947Z,32.70
2019-03-06T15:51:00.263Z,32.50
2019-03-06T15:54:04.097Z,32.70
2019-03-06T15:57:10.062Z,32.60
2019-03-06T16:00:23.078Z,32.60
2019-03-06T16:03:26.910Z,32.40
2019-03-06T16:06:30.799Z,32.40
2019-03-06T16:09:35.523Z,32.90
2019-03-06T16:12:39.301Z,32.60
2019-03-06T16:15:43.116Z,33.20
2019-03-06T16:18:46.898Z,33.50
2019-03-06T16:21:50.639Z,34.50
2019-03-06T16:24:54.474Z,34.00
2019-03-06T16:27:58.281Z,34.30
2019-03-06T16:31:02.120Z,35.00
2019-03-06T16:34:05.913Z,34.70
2019-03-06T16:37:09.758Z,34.90
2019-03-06T16:40:15.794Z,34.90
2019-03-06T16:43:19.446Z,35.50
2019-03-06T16:46:23.402Z,36.00
2019-03-06T16:49:27.125Z,36.20
2019-03-06T16:52:31.206Z,36.60
2019-03-06T16:55:35.035Z,36.60
2019-03-06T16:58:39.138Z,36.80
2019-03-06T17:01:42.923Z,36.70
2019-03-06T17:04:46.971Z,37.10
2019-03-06T17:07:51.222Z,37.30
2019-03-06T17:10:55.253Z,37.60
2019-03-06T17:13:58.986Z,37.70
2019-03-06T17:17:02.853Z,38.00
2019-03-06T17:20:07.913Z,38.00
2019-03-06T17:23:11.750Z,37.80
2019-03-06T17:26:15.473Z,37.80
2019-03-06T17:29:19.316Z,38.00
2019-03-06T17:32:23.289Z,38.20
2019-03-06T17:35:27.627Z,38.20
2019-03-06T17:38:31.413Z,38.10
2019-03-06T17:41:35.241Z,38.50
2019-03-06T17:44:39.096Z,38.50
2019-03-06T17:47:43.057Z,38.90
2019-03-06T17:50:47.002Z,38.90
2019-03-06T17:53:50.734Z,39.00
2019-03-06T17:56:54.738Z,38.90
2019-03-06T17:59:58.493Z,39.00
2019-03-06T18:03:02.393Z,39.10
2019-03-06T18:06:06.262Z,38.90
2019-03-06T18:09:10.309Z,38.90
2019-03-06T18:12:16.049Z,39.40
2019-03-06T18:15:19.718Z,38.80
2019-03-06T18:18:23.590Z,39.40
2019-03-06T18:21:28.173Z,39.20
2019-03-06T18:24:31.854Z,39.50
2019-03-06T18:27:35.789Z,39.40
2019-03-06T18:30:39.572Z,39.70
2019-03-06T18:33:43.298Z,38.90
2019-03-06T18:36:47.438Z,38.90
2019-03-06T18:39:51.205Z,38.70
2019-03-06T18:42:55.176Z,38.70
2019-03-06T18:45:58.857Z,38.70
2019-03-06T18:49:02.574Z,38.90
2019-03-06T18:52:06.505Z,38.60
2019-03-06T18:55:10.726Z,38.40
2019-03-06T18:58:14.524Z,38.00
2019-03-06T19:01:18.311Z,38.20
2019-03-06T19:04:22.742Z,38.20
2019-03-06T19:07:26.546Z,37.90
2019-03-06T19:10:30.622Z,37.70
2019-03-06T19:13:34.509Z,37.40
2019-03-06T19:16:38.344Z,37.10
2019-03-06T19:19:42.151Z,37.60
2019-03-06T19:22:46.947Z,38.60
2019-03-06T19:25:50.771Z,37.30
2019-03-06T19:28:54.589Z,37.30
2019-03-06T19:31:58.363Z,37.10
2019-03-06T19:35:02.175Z,36.60
2019-03-06T19:38:06.070Z,36.80
2019-03-06T19:41:09.798Z,37.20
2019-03-06T19:44:13.586Z,36.30
2019-03-06T19:47:17.374Z,36.30
2019-03-06T19:50:21.562Z,36.30
2019-03-06T19:53:26.174Z,36.20
2019-03-06T19:56:29.930Z,36.40
2019-03-06T19:59:33.719Z,36.30
2019-03-06T20:02:37.527Z,35.80
2019-03-06T20:05:41.782Z,36.10
2019-03-06T20:08:45.583Z,36.30
2019-03-06T20:11:49.451Z,36.10
2019-03-06T20:14:53.924Z,36.40
2019-03-06T20:17:57.760Z,35.90
2019-03-06T20:21:01.653Z,36.20
2019-03-06T20:24:05.429Z,35.90
2019-03-06T20:27:09.314Z,35.90
2019-03-06T20:30:14.536Z,36.10
2019-03-06T20:33:18.755Z,36.70
2019-03-06T20:36:22.659Z,36.20
2019-03-06T20:39:26.588Z,36.40
2019-03-06T20:42:30.527Z,36.00
2019-03-06T20:45:34.473Z,36.20
2019-03-06T20:48:38.444Z,36.30
2019-03-06T20:51:42.498Z,36.20
2019-03-06T20:54:46.302Z,36.20
2019-03-06T20:57:50.218Z,36.50
2019-03-06T21:00:53.871Z,36.50
2019-03-06T21:03:57.912Z,36.20
2019-03-06T21:07:01.801Z,36.40
2019-03-06T21:10:06.618Z,36.60
2019-03-06T21:13:10.432Z,36.50
2019-03-06T21:16:14.198Z,37.70
2019-03-06T21:19:17.988Z,38.00
2019-03-06T21:22:21.747Z,38.50
2019-03-06T21:25:25.811Z,37.80
2019-03-06T21:28:29.699Z,38.10
2019-03-06T21:31:33.425Z,37.80
2019-03-06T21:34:37.247Z,38.20
2019-03-06T21:37:41.073Z,38.30
2019-03-06T21:40:44.806Z,38.50
2019-03-06T21:43:48.565Z,38.80
2019-03-06T21:46:52.529Z,38.50
2019-03-06T21:49:56.297Z,38.90
2019-03-06T21:53:00.115Z,38.90
2019-03-06T21:56:04.196Z,38.70
2019-03-06T21:59:08.068Z,38.60
2019-03-06T22:02:11.894Z,38.90
2019-03-06T22:05:16.063Z,37.60
2019-03-06T22:08:19.804Z,38.60
2019-03-06T22:11:23.634Z,39.10
2019-03-06T22:14:27.614Z,38.80
2019-03-06T22:17:31.714Z,38.30
2019-03-06T22:20:35.820Z,39.00
2019-03-06T22:23:39.595Z,37.90
2019-03-06T22:26:43.669Z,39.60
2019-03-06T22:29:47.534Z,39.60
2019-03-06T22:32:51.392Z,39.70
2019-03-06T22:35:55.408Z,39.80
2019-03-06T22:38:59.426Z,40.00
2019-03-06T22:42:03.712Z,40.70
2019-03-06T22:45:08.275Z,40.70
2019-03-06T22:48:12.268Z,41.00
2019-03-06T22:51:15.993Z,41.00
2019-03-06T22:54:20.274Z,41.50
2019-03-06T22:57:24.075Z,41.20
2019-03-06T23:00:43.319Z,42.40
2019-03-06T23:03:47.192Z,41.60
2019-03-06T23:06:50.953Z,42.00
2019-03-06T23:09:54.702Z,42.20
2019-03-06T23:12:58.738Z,42.00
2019-03-06T23:16:02.582Z,42.00
2019-03-06T23:19:06.520Z,41.90
2019-03-06T23:22:10.315Z,42.10
2019-03-06T23:25:14.142Z,42.40
2019-03-06T23:28:17.883Z,42.00
2019-03-06T23:31:21.806Z,42.30
2019-03-06T23:34:25.568Z,42.60
2019-03-06T23:37:29.337Z,42.40
2019-03-06T23:40:33.022Z,42.10
2019-03-06T23:43:36.814Z,43.20
2019-03-06T23:46:41.039Z,42.90
2019-03-06T23:49:44.838Z,42.50
2019-03-06T23:53:14.277Z,43.30
2019-03-06T23:56:18.318Z,44.40
2019-03-06T23:59:22.133Z,44.60
